Airfield :
LOGIN :

Register | Disclaimer

   EN    FR    IT 

 










Legend :    VFR   Marginal VFR   IFR   Intensive IFR   Very Intensive IFR
Visi :
Ceiling :
>= 8 km
>= 3000ft
5 to 8 km
1000 to 3000 ft
1500m to 5 km
500 to 1000 ft
800 to 1500m
200 to 500 ft
< 800m
< 200 ft
Symbols :   Thunderstorms  Fog  Heavy snow  Heavy precipitations  Wind > 20 kt
SIGMETs :     Misc.  Thunderstorms  Icing  Turbulence  Mountain Waves  Volcanic Ashes






- Airport Elevation : 142 ft
- IATA code : ALC


LEAL - Alicante

CURRENT METAR :
  • 041630Z 19009KT 140V230 CAVOK 33/17 Q1011 NOSIG

EXPIRED METARs :
  • 041600Z 19012KT 160V240 CAVOK 33/20 Q1011 NOSIG
  • 041530Z 19015KT 140V240 CAVOK 32/19 Q1011 NOSIG
  • 041500Z 18014KT 150V230 CAVOK 32/18 Q1011 NOSIG
  • 041430Z 18014KT 140V210 CAVOK 31/19 Q1011 NOSIG
  • 041400Z 18012KT 140V230 CAVOK 32/20 Q1011 NOSIG

TAF TAF LEAL
Valid from the 04 at 12:00 until the 05 at 12:00 UTC


041100Z 0412/0512 18015KT CAVOK TX34/0412Z TN22/0506Z
TEMPO 0414/0417 19020G30KT
BECMG 0418/0420 05009KT
TEMPO 0500/0506 BKN010
TEMPO 0503/0508 VRB04KT
BECMG 0508/0510 11010KT



MET'MAP, your aeronautical weather chart ! - Copyright ORBIFLY December 2007 - Disclaimer

ORBIFLY MET'MAP TEAM :

Programming & Development : Alexandra Zaïnal
Concept & original design : Baudouin d'Aumeries
Assistance for programming : Marc-Olivier Méhu
Technical & hardware support : Manuel Goepfert

Contact : metmap@orbifly.com




SOURCES & CREDITS :

   NOAA